Hauptseite
METAR-TAF:

METAR-TAF

Flughäfen :

Niamey, Niger

Flughafen Niamey

Breite: 13-29N, Länge: 002-10E, Höhe: 223 m

Beobachtung

Neuester Wetterbericht von vor 39 Minuten, um 14:00 UTC
Wind 11 kt aus West
Temperatur 27°C
Luftfeuchtigkeit 79%
Luftdruck 1013 hPa
Sichtweite 10 km oder mehr
Durchbrochene Bewölkung in der Höhe von 1600 ft

METAR: DRRN 221400Z 27011KT 9999 BKN016 27/23 Q1013 NOSIG

Zeit: 15:39 (14:39 UTC)

Prognose

Neuester Wetterbericht von vor 3 Stunden und 39 Minuten, um 11:00 UTC
Gültige Prognose vom 22 um 12 UTC bis 23 um 18 UTC
Wind 8 kt aus West/Südwest
Sichtweite: 8000 m
Aufgelockert bewölkt in der Höhe von 2000 ft
Wahrscheinlichkeit 30% :
Zeitweise
vom 22 um 12 UTC bis 22 um 16 UTC
Sichtweite: 4000 m
Leicht bewölkt in der Höhe von 3300 ft, Kumulonimbus.

TAF: DRRN 221100Z 2212/2318 24008KT 8000 SCT020 PROB30 TEMPO 2212/2216 4000 TSSHRA FEW033CB

Wetterbeobachtungen und Prognosen von mehr als 4000 Flughäfen (METAR und TAF Bericht).

Die verfügbaren Stationen werden durch gelbe und rote Markierungen auf der Karte dargestellt.

Führen Sie die Maus auf sie, um den Namen der Station zu sehen.

Darauf klicken, um die Beobachtung von Wetterbeobachtungen und Prognosen zu sehen.

Um die Karte zu ändern : klicken Sie auf den grünen Tasten mit einem schwarzen Kreuz Zum Vergrößern, auf den grünen Button mit einem Gedankenstrich zu verkleinern, oder auf die grünen Pfeile für benachbarte Karten.


METAR-TAF: